Weather reports worldwide

Advertisment
Cadiz, Spain (8452): temperature & dewpoint: 07.07.2020 07:00:00 - 13.07.2020 07:00:00 (CEST)Cadiz, Spain (8452): wind speed & gusts: 07.07.2020 07:00:00 - 13.07.2020 07:00:00 (CEST)Cadiz, Spain (8452): wind direction: 07.07.2020 07:00:00 - 13.07.2020 07:00:00 (CEST)Cadiz, Spain (8452): reduced air pressure: 07.07.2020 07:00:00 - 13.07.2020 07:00:00 (CEST)Cadiz, Spain (8452): precipitation: 07.07.2020 07:00:00 - 13.07.2020 07:00:00 (CEST)
Date & Time tt [°C] td [°C] ff [km/h] ff [kn] fx [km/h] fx [kn] dd ppp [hPa] rr [mm]
13.07.2020 07:00:00 24,9 19,1 16 9 29 16 SE 1016,5 0,0
13.07.2020 06:00:00 24,4 19,1 11 6 23 12 SSE 1016,3 0,0
13.07.2020 05:00:00 24,7 20,2 17 9 35 19 SE 1016,2 0,0
13.07.2020 04:00:00 24,6 20,7 19 10 25 14 SE 1016,4 0,0
13.07.2020 03:00:00 24,9 21,0 19 10 29 16 SE 1016,9 0,0
13.07.2020 02:00:00 25,0 21,3 23 12 30 16 SE 1017,6 -
13.07.2020 01:00:00 24,6 20,7 2 1 9 5 NNE 1017,3 0,0
13.07.2020 00:00:00 24,4 20,7 6 4 10 5 WSW 1017,2 0,0
12.07.2020 23:00:00 24,6 20,9 3 2 18 10 W 1016,3 0,0
12.07.2020 22:00:00 24,8 21,5 10 6 19 11 WNW 1015,1 0,0
12.07.2020 21:00:00 25,3 21,0 10 6 19 10 W 1014,4 0,0
12.07.2020 20:00:00 26,2 21,4 14 8 22 12 W 1013,8 -
12.07.2020 19:00:00 27,0 21,5 12 7 29 15 W 1013,7 0,0
12.07.2020 18:00:00 27,2 21,5 16 9 24 13 WNW 1014,0 0,0
12.07.2020 17:00:00 28,2 21,5 16 9 25 14 W 1014,3 0,0
12.07.2020 16:00:00 27,4 21,0 18 10 26 14 W 1014,7 0,0
12.07.2020 15:00:00 29,0 21,0 16 9 29 16 W 1015,0 0,0
12.07.2020 14:00:00 29,7 20,0 16 9 23 12 WSW 1015,2 -
12.07.2020 13:00:00 30,7 20,3 21 11 29 16 ESE 1015,0 0,0
12.07.2020 12:00:00 30,1 20,3 18 10 34 19 E 1015,1 0,0
12.07.2020 11:00:00 28,6 20,3 21 12 38 21 E 1014,4 0,0
12.07.2020 10:00:00 27,1 18,9 22 12 35 19 ESE 1014,3 0,0
12.07.2020 09:00:00 26,4 18,8 23 13 34 18 ESE 1014,2 0,0
12.07.2020 08:00:00 25,7 18,8 24 13 44 24 E 1014,1 -
12.07.2020 07:00:00 26,1 17,2 18 10 40 21 E 1013,2 0,0
12.07.2020 06:00:00 26,1 19,3 14 7 34 19 ESE 1013,2 0,0
12.07.2020 05:00:00 26,4 18,5 24 13 47 25 E 1012,8 0,0
12.07.2020 04:00:00 26,7 18,8 31 17 48 26 E 1013,3 0,0
12.07.2020 03:00:00 27,0 17,2 21 12 37 20 E 1013,7 0,0
12.07.2020 02:00:00 27,2 17,4 17 9 48 26 E 1013,3 -
12.07.2020 01:00:00 27,6 16,9 22 12 35 19 E 1012,5 0,0
12.07.2020 00:00:00 27,5 17,4 28 15 63 34 ESE 1012,2 0,0
11.07.2020 23:00:00 27,6 18,0 42 23 69 37 ESE 1010,5 0,0
11.07.2020 22:00:00 27,4 17,9 44 24 69 38 ESE 1010,3 0,0
11.07.2020 21:00:00 28,2 17,4 49 26 69 38 ESE 1009,8 0,0
11.07.2020 20:00:00 28,7 18,5 45 24 68 37 ESE 1010,4 -
11.07.2020 19:00:00 29,6 17,8 50 27 65 35 ESE 1010,2 0,0
11.07.2020 18:00:00 29,9 19,0 44 24 61 33 ESE 1011,1 0,0
11.07.2020 17:00:00 30,7 18,5 41 22 53 29 ESE 1011,5 0,0
11.07.2020 16:00:00 31,2 19,2 40 22 53 29 ESE 1011,9 0,0
11.07.2020 15:00:00 30,9 20,2 34 18 45 25 ESE 1012,4 0,0
11.07.2020 14:00:00 30,5 19,6 35 19 44 24 ESE 1012,9 -
11.07.2020 13:00:00 29,6 20,5 31 17 46 25 ESE 1013,3 0,0
11.07.2020 12:00:00 28,8 20,5 29 16 42 23 E 1013,3 0,0
11.07.2020 11:00:00 27,9 19,4 31 17 42 23 E 1012,9 0,0
11.07.2020 10:00:00 27,0 18,3 27 15 40 22 E 1012,8 0,0
11.07.2020 09:00:00 25,6 17,2 13 7 24 13 E 1012,7 0,0
11.07.2020 08:00:00 24,6 17,1 20 11 29 16 E 1012,3 -
11.07.2020 07:00:00 24,2 17,9 22 12 40 21 E 1011,8 0,0
11.07.2020 06:00:00 24,6 17,3 33 18 42 23 ESE 1011,7 0,0
11.07.2020 05:00:00 24,7 16,9 20 11 25 13 ESE 1011,9 0,0
11.07.2020 04:00:00 24,9 17,4 5 3 17 9 E 1012,1 0,0
11.07.2020 03:00:00 25,3 15,9 5 3 13 7 E 1012,9 0,0
11.07.2020 02:00:00 25,8 16,4 9 5 18 10 ESE 1013,0 -
11.07.2020 01:00:00 25,1 16,6 3 2 8 5 NNE 1013,1 0,0
11.07.2020 00:00:00 25,1 17,3 2 1 5 3 W 1013,2 0,0
10.07.2020 23:00:00 25,3 17,5 3 1 6 3 SSE 1012,5 0,0
10.07.2020 22:00:00 25,5 16,4 4 2 13 7 W 1012,1 0,0
10.07.2020 21:00:00 25,9 19,3 9 5 18 10 W 1012,1 0,0
10.07.2020 20:00:00 26,4 19,3 11 6 17 9 W 1012,1 -
10.07.2020 19:00:00 26,9 19,3 9 5 20 11 W 1012,3 0,0
10.07.2020 18:00:00 27,3 20,4 12 6 18 10 W 1012,8 0,0
10.07.2020 17:00:00 26,4 20,0 12 7 19 11 W 1013,1 0,0
10.07.2020 16:00:00 25,8 19,0 11 6 21 12 W 1013,8 0,0
10.07.2020 15:00:00 24,7 20,0 14 7 25 14 W 1014,3 0,0
10.07.2020 14:00:00 25,3 19,0 11 6 - - WSW 1014,8 -
10.07.2020 13:00:00 24,3 18,9 8 4 18 10 W 1015,0 0,0
10.07.2020 12:00:00 24,1 18,8 5 3 13 7 SSW 1015,3 0,0
10.07.2020 11:00:00 23,1 18,8 6 3 13 7 S 1015,4 0,0
10.07.2020 10:00:00 22,4 18,8 4 2 14 8 S 1015,5 0,0
10.07.2020 09:00:00 21,2 18,4 6 4 20 11 S 1015,0 0,0
10.07.2020 08:00:00 20,5 18,5 9 5 16 9 S 1014,6 -
10.07.2020 07:00:00 20,3 18,4 1 1 18 10 S 1014,6 0,0
10.07.2020 06:00:00 20,4 18,5 9 5 18 10 S 1014,3 0,0
10.07.2020 05:00:00 20,6 18,4 12 6 22 12 SSE 1014,8 0,0
10.07.2020 04:00:00 20,8 18,2 14 7 18 10 SE 1015,2 0,0
10.07.2020 03:00:00 21,1 18,5 4 2 10 5 S 1015,6 0,0
10.07.2020 02:00:00 20,9 18,1 2 1 9 5 WSW 1016,0 -
10.07.2020 01:00:00 20,9 17,5 5 3 9 5 W 1016,3 0,0
10.07.2020 00:00:00 20,9 17,3 5 3 9 5 WSW 1016,0 0,0
09.07.2020 23:00:00 21,2 17,4 5 3 10 6 SW 1015,3 0,0
09.07.2020 22:00:00 21,6 17,0 5 3 13 7 WSW 1014,9 0,0
09.07.2020 21:00:00 23,2 17,5 7 4 16 9 W 1015,0 0,0
09.07.2020 20:00:00 24,1 17,4 10 5 18 10 WSW 1015,1 -
09.07.2020 19:00:00 24,0 16,8 9 5 19 11 SW 1015,3 0,0
09.07.2020 18:00:00 24,7 16,4 9 5 19 11 SW 1015,8 0,0
09.07.2020 17:00:00 24,7 16,6 10 5 21 11 SW 1016,0 0,0
09.07.2020 16:00:00 24,8 16,0 10 5 21 11 SW 1017,1 0,0
09.07.2020 15:00:00 24,9 16,3 10 5 22 12 WSW 1017,3 0,0
09.07.2020 14:00:00 24,7 16,1 9 5 21 11 SSW 1017,8 -
09.07.2020 13:00:00 23,8 16,3 11 6 22 12 S 1018,0 0,0
09.07.2020 12:00:00 23,2 16,0 11 6 22 12 S 1017,8 0,0
09.07.2020 11:00:00 22,5 16,0 10 6 25 14 SSW 1017,5 0,0
09.07.2020 10:00:00 21,7 16,2 9 5 23 12 S 1017,7 0,0
09.07.2020 09:00:00 21,4 16,4 12 6 26 14 SSW 1017,1 0,0
09.07.2020 08:00:00 21,1 16,5 12 6 23 12 S 1016,5 -
09.07.2020 07:00:00 21,2 17,0 10 6 27 14 S 1016,2 0,0
09.07.2020 06:00:00 21,2 17,2 12 7 25 13 SSW 1016,1 0,0
09.07.2020 05:00:00 21,2 17,0 13 7 27 15 SSW 1016,1 0,0
09.07.2020 04:00:00 21,4 17,4 13 7 24 13 SSW 1016,0 0,0
09.07.2020 03:00:00 21,6 18,0 12 6 28 15 SSW 1016,4 0,0
09.07.2020 02:00:00 21,4 18,4 14 7 24 13 S 1016,5 -
09.07.2020 01:00:00 21,7 18,5 13 7 23 13 SSW 1016,8 0,0
09.07.2020 00:00:00 21,9 18,7 10 5 16 9 SSW 1016,4 0,0
08.07.2020 23:00:00 22,1 18,5 7 4 15 8 SSW 1015,7 0,0
08.07.2020 22:00:00 22,4 18,4 10 6 19 10 WSW 1015,1 0,0
08.07.2020 21:00:00 23,9 18,8 16 8 24 13 WSW 1014,7 0,0
08.07.2020 20:00:00 25,1 18,8 15 8 27 15 WSW 1014,4 -
08.07.2020 19:00:00 25,5 18,7 14 8 27 15 W 1014,3 0,0
08.07.2020 18:00:00 25,6 19,3 18 10 26 14 W 1014,6 0,0
08.07.2020 17:00:00 26,5 19,8 18 10 31 17 W 1014,6 0,0
08.07.2020 16:00:00 26,5 19,1 23 13 36 19 W 1014,4 0,0
08.07.2020 15:00:00 25,9 19,1 21 11 33 18 W 1014,3 0,0
08.07.2020 14:00:00 25,9 19,3 22 12 32 17 W 1014,6 -
08.07.2020 13:00:00 26,2 19,1 10 5 23 12 W 1014,4 0,0
08.07.2020 12:00:00 26,3 20,2 9 5 17 9 W 1014,3 0,0
08.07.2020 11:00:00 26,5 19,6 3 1 19 11 SSW 1013,8 0,0
08.07.2020 10:00:00 25,1 20,8 9 5 18 10 SSW 1013,4 0,0
08.07.2020 09:00:00 24,6 20,5 9 5 16 9 SSE 1012,8 0,0
08.07.2020 08:00:00 25,6 13,5 8 4 13 7 SE 1012,3 -
08.07.2020 07:00:00 26,0 10,5 3 1 12 6 WSW 1011,9 0,0
08.07.2020 06:00:00 25,8 16,4 5 3 11 6 E 1011,2 0,0
08.07.2020 05:00:00 25,4 18,8 6 3 11 6 E 1011,4 0,0
08.07.2020 04:00:00 25,4 19,6 2 1 7 4 NE 1011,8 0,0
08.07.2020 03:00:00 25,6 19,5 6 4 14 8 N 1012,3 0,0
08.07.2020 02:00:00 26,5 18,9 10 5 13 7 NNW 1012,8 -
08.07.2020 01:00:00 26,4 17,5 8 4 11 6 NNW 1013,0 0,0
08.07.2020 00:00:00 27,1 17,3 7 4 14 7 NNW 1013,0 0,0
07.07.2020 23:00:00 27,5 15,5 6 3 10 5 NNW 1012,9 0,0
07.07.2020 22:00:00 27,3 16,3 8 4 14 7 N 1012,5 0,0
07.07.2020 21:00:00 28,8 19,4 11 6 18 10 NNW 1012,8 0,0
07.07.2020 20:00:00 30,0 17,5 8 5 21 11 WNW 1012,8 -
07.07.2020 19:00:00 30,5 15,3 11 6 21 11 W 1013,0 0,0
07.07.2020 18:00:00 34,5 12,7 10 5 16 9 WSW 1013,5 0,0
07.07.2020 17:00:00 33,2 13,8 5 3 15 8 S 1013,6 0,0
07.07.2020 16:00:00 29,4 17,2 10 5 23 12 WNW 1014,6 0,0
07.07.2020 15:00:00 29,6 19,3 16 8 24 13 W 1014,9 0,0
07.07.2020 14:00:00 29,1 18,5 14 8 26 14 W 1015,2 -
07.07.2020 13:00:00 28,6 18,4 15 8 25 14 WSW 1015,1 0,0
07.07.2020 12:00:00 30,0 15,7 1 1 7 4 SE 1014,8 0,0
07.07.2020 11:00:00 26,9 16,2 5 3 9 5 NNW 1014,5 0,0
07.07.2020 10:00:00 25,9 17,8 5 3 8 5 NNW 1014,6 0,0
07.07.2020 09:00:00 24,8 17,3 6 3 7 4 NNW 1014,2 0,0
07.07.2020 08:00:00 24,8 12,1 3 1 5 3 ENE 1013,7 -
07.07.2020 07:00:00 24,6 13,2 3 1 9 5 NE 1013,6 0,0

tt = temperature
td = dewpoint
ff = wind speed
fx = gusts
dd = wind direction
ppp = reduced air pressure
rr = precipitation

Next stations